createdAt,value
2018-12-15T00:02:24.980Z,11.37
2018-12-15T00:04:54.244Z,12.00
2018-12-15T00:07:22.965Z,11.80
2018-12-15T00:09:51.621Z,10.97
2018-12-15T00:12:20.247Z,11.23
2018-12-15T00:14:49.016Z,11.00
2018-12-15T00:17:17.620Z,11.10
2018-12-15T00:19:46.303Z,10.40
2018-12-15T00:22:14.988Z,10.80
2018-12-15T00:24:43.680Z,9.93
2018-12-15T00:27:12.334Z,10.23
2018-12-15T00:29:41.133Z,9.90
2018-12-15T00:32:09.745Z,11.37
2018-12-15T00:34:38.389Z,10.83
2018-12-15T00:37:07.020Z,10.50
2018-12-15T00:39:35.675Z,11.20
2018-12-15T00:42:04.901Z,10.50
2018-12-15T00:44:33.542Z,10.23
2018-12-15T00:47:02.213Z,10.40
2018-12-15T00:49:30.841Z,10.30
2018-12-15T00:51:59.453Z,10.20
2018-12-15T00:54:28.169Z,10.47
2018-12-15T00:56:56.764Z,10.30
2018-12-15T00:59:25.797Z,9.70
2018-12-15T01:01:54.953Z,9.97
2018-12-15T01:04:23.951Z,10.53
2018-12-15T01:06:52.589Z,10.40
2018-12-15T01:09:21.193Z,10.57
2018-12-15T01:11:49.818Z,9.87
2018-12-15T01:14:18.421Z,9.93
2018-12-15T01:16:47.056Z,10.00
2018-12-15T01:19:15.657Z,9.53
2018-12-15T01:21:44.250Z,9.93
2018-12-15T01:24:12.978Z,10.00
2018-12-15T01:26:41.833Z,9.27
2018-12-15T01:29:10.989Z,9.27
2018-12-15T01:31:39.633Z,10.00
2018-12-15T01:34:08.270Z,10.07
2018-12-15T01:36:36.925Z,9.37
2018-12-15T01:39:08.092Z,9.30
2018-12-15T01:41:36.778Z,10.00
2018-12-15T01:44:05.390Z,8.53
2018-12-15T01:46:34.041Z,9.50
2018-12-15T01:49:02.623Z,9.93
2018-12-15T01:51:31.226Z,8.53
2018-12-15T01:53:59.814Z,9.50
2018-12-15T01:56:28.461Z,9.20
2018-12-15T01:58:57.088Z,9.53
2018-12-15T02:01:25.680Z,9.73
2018-12-15T02:03:54.480Z,9.10
2018-12-15T02:06:23.136Z,9.40
2018-12-15T02:08:51.800Z,9.57
2018-12-15T02:11:20.421Z,9.63
2018-12-15T02:13:49.007Z,9.77
2018-12-15T02:16:17.616Z,8.63
2018-12-15T02:18:46.226Z,9.03
2018-12-15T02:21:14.829Z,8.57
2018-12-15T02:23:43.437Z,8.97
2018-12-15T02:26:13.090Z,8.10
2018-12-15T02:28:42.902Z,8.77
2018-12-15T02:31:11.830Z,9.43
2018-12-15T02:33:40.514Z,8.60
2018-12-15T02:36:09.136Z,7.97
2018-12-15T02:38:37.799Z,9.37
2018-12-15T02:41:06.423Z,8.20
2018-12-15T02:43:35.057Z,8.10
2018-12-15T02:46:03.664Z,8.70
2018-12-15T02:48:32.257Z,8.00
2018-12-15T02:51:00.854Z,8.47
2018-12-15T02:53:29.498Z,9.00
2018-12-15T02:55:58.745Z,7.90
2018-12-15T02:58:27.473Z,8.27
2018-12-15T03:00:56.109Z,8.33
2018-12-15T03:03:24.779Z,8.00
2018-12-15T03:05:53.381Z,7.80
2018-12-15T03:08:22.004Z,8.27
2018-12-15T03:10:50.641Z,8.07
2018-12-15T03:13:19.241Z,8.00
2018-12-15T03:15:47.846Z,7.70
2018-12-15T03:18:16.458Z,7.63
2018-12-15T03:21:02.335Z,7.63
2018-12-15T03:23:30.945Z,7.17
2018-12-15T03:25:59.554Z,8.40
2018-12-15T03:28:28.160Z,8.03
2018-12-15T03:30:56.801Z,8.23
2018-12-15T03:33:25.549Z,7.70
2018-12-15T03:35:54.164Z,8.13
2018-12-15T03:38:22.814Z,7.60
2018-12-15T03:40:51.534Z,7.57
2018-12-15T03:43:20.144Z,7.47
2018-12-15T03:45:48.762Z,7.40
2018-12-15T03:48:17.403Z,7.67
2018-12-15T03:50:46.021Z,7.57
2018-12-15T03:53:14.610Z,6.90
2018-12-15T03:55:43.193Z,7.03
2018-12-15T03:58:11.828Z,7.10
2018-12-15T04:00:40.441Z,7.17
2018-12-15T04:03:09.077Z,7.90
2018-12-15T04:05:38.343Z,7.03
2018-12-15T04:08:07.000Z,7.17
2018-12-15T04:10:36.159Z,7.53
2018-12-15T04:13:04.780Z,7.17
2018-12-15T04:15:33.424Z,7.60
2018-12-15T04:18:03.846Z,7.33
2018-12-15T04:20:32.798Z,6.80
2018-12-15T04:23:01.467Z,7.13
2018-12-15T04:25:30.119Z,7.40
2018-12-15T04:27:58.732Z,7.53
2018-12-15T04:30:27.347Z,6.97
2018-12-15T04:32:55.949Z,6.30
2018-12-15T04:35:24.609Z,6.13
2018-12-15T04:37:53.233Z,5.40
2018-12-15T04:40:21.989Z,6.47
2018-12-15T04:42:51.127Z,6.33
2018-12-15T04:45:19.735Z,5.80
2018-12-15T04:47:48.773Z,5.43
2018-12-15T04:50:17.412Z,5.70
2018-12-15T04:52:46.051Z,6.30
2018-12-15T04:55:14.694Z,6.03
2018-12-15T04:57:43.305Z,5.93
2018-12-15T05:00:11.933Z,6.20
2018-12-15T05:02:43.797Z,5.73
2018-12-15T05:05:11.146Z,5.80
2018-12-15T05:07:39.785Z,5.97
2018-12-15T05:10:08.452Z,5.23
2018-12-15T05:12:37.082Z,6.50
2018-12-15T05:15:05.694Z,6.83
2018-12-15T05:17:34.317Z,5.97
2018-12-15T05:20:02.935Z,6.23
2018-12-15T05:22:31.582Z,6.10
2018-12-15T05:25:00.232Z,5.83
2018-12-15T05:27:28.837Z,6.20
2018-12-15T05:29:57.461Z,5.73
2018-12-15T05:32:26.209Z,5.70
2018-12-15T05:34:54.840Z,6.17
2018-12-15T05:37:23.477Z,5.63
2018-12-15T05:39:52.111Z,6.27
2018-12-15T05:42:20.733Z,6.63
2018-12-15T05:44:49.750Z,6.43
2018-12-15T05:47:18.387Z,5.80
2018-12-15T05:49:46.961Z,6.37
2018-12-15T05:52:16.494Z,6.20
2018-12-15T05:54:45.081Z,6.30
2018-12-15T05:57:13.697Z,5.77
2018-12-15T05:59:42.328Z,5.37
2018-12-15T06:02:13.767Z,5.50
2018-12-15T06:04:42.360Z,5.30
2018-12-15T06:07:11.041Z,5.00
2018-12-15T06:09:39.652Z,5.73
2018-12-15T06:12:08.289Z,5.03
2018-12-15T06:14:36.889Z,5.37
2018-12-15T06:17:05.507Z,4.87
2018-12-15T06:19:34.135Z,5.80
2018-12-15T06:22:02.722Z,5.73
2018-12-15T06:24:31.372Z,5.47
2018-12-15T06:27:00.037Z,5.80
2018-12-15T06:29:28.673Z,5.60
2018-12-15T06:31:57.303Z,5.20
2018-12-15T06:34:25.909Z,4.60
2018-12-15T06:36:54.543Z,5.93
2018-12-15T06:39:23.137Z,5.20
2018-12-15T06:41:51.837Z,5.40
2018-12-15T06:44:20.431Z,5.23
2018-12-15T06:46:49.033Z,5.43
2018-12-15T06:49:17.681Z,5.33
2018-12-15T06:51:46.318Z,5.60
2018-12-15T06:54:14.953Z,5.30
2018-12-15T06:56:43.571Z,5.27
2018-12-15T06:59:12.181Z,5.33
2018-12-15T07:01:40.812Z,5.80
2018-12-15T07:04:09.510Z,5.57
2018-12-15T07:06:38.192Z,6.03
2018-12-15T07:09:07.489Z,5.70
2018-12-15T07:11:36.108Z,6.03
2018-12-15T07:14:04.717Z,5.77
2018-12-15T07:16:33.805Z,4.80
2018-12-15T07:19:02.416Z,5.13
2018-12-15T07:21:31.041Z,6.33
2018-12-15T07:23:59.663Z,5.37
2018-12-15T07:26:30.501Z,5.43
2018-12-15T07:28:59.293Z,5.53
2018-12-15T07:31:31.075Z,5.80
2018-12-15T07:34:00.010Z,5.90
2018-12-15T07:36:28.623Z,5.40
2018-12-15T07:38:57.224Z,5.37
2018-12-15T07:41:25.834Z,4.80
2018-12-15T07:43:54.482Z,6.07
2018-12-15T07:46:23.088Z,5.57
2018-12-15T07:48:51.759Z,5.90
2018-12-15T07:51:20.505Z,5.90
2018-12-15T07:53:49.173Z,5.70
2018-12-15T07:56:17.821Z,6.47
2018-12-15T07:58:46.461Z,6.03
2018-12-15T08:01:15.090Z,5.60
2018-12-15T08:03:43.728Z,6.60
2018-12-15T08:06:12.346Z,6.17
2018-12-15T08:08:41.017Z,6.50
2018-12-15T08:11:14.911Z,6.90
2018-12-15T08:13:48.291Z,6.60
2018-12-15T08:16:17.003Z,6.97
2018-12-15T08:18:45.645Z,7.00
2018-12-15T08:21:14.260Z,6.07
2018-12-15T08:23:42.854Z,6.73
2018-12-15T08:26:11.494Z,7.00
2018-12-15T08:28:40.245Z,7.43
2018-12-15T08:31:08.913Z,7.40
2018-12-15T08:33:37.503Z,8.80
2018-12-15T08:36:06.157Z,7.43
2018-12-15T08:38:34.824Z,8.30
2018-12-15T08:41:03.452Z,7.33
2018-12-15T08:43:32.776Z,8.73
2018-12-15T08:46:02.366Z,7.83
2018-12-15T08:48:30.994Z,9.37
2018-12-15T08:50:59.893Z,9.37
2018-12-15T08:53:28.497Z,8.50
2018-12-15T08:55:57.184Z,8.60
2018-12-15T08:58:25.769Z,8.47
2018-12-15T09:00:54.413Z,8.20
2018-12-15T09:03:23.055Z,9.27
2018-12-15T09:05:51.684Z,9.77
2018-12-15T09:08:20.286Z,9.40
2018-12-15T09:10:48.869Z,9.00
2018-12-15T09:13:17.489Z,9.00
2018-12-15T09:15:46.108Z,9.53
2018-12-15T09:18:14.802Z,9.97
2018-12-15T09:20:44.304Z,11.47
2018-12-15T09:23:12.905Z,11.30
2018-12-15T09:25:41.585Z,11.33
2018-12-15T09:28:10.538Z,11.77
2018-12-15T09:30:39.942Z,11.87
2018-12-15T09:33:08.646Z,11.63
2018-12-15T09:35:37.298Z,12.57
2018-12-15T09:38:05.921Z,12.83
2018-12-15T09:40:34.542Z,12.13
2018-12-15T09:43:03.189Z,11.07
2018-12-15T09:45:31.826Z,13.73
2018-12-15T09:48:00.496Z,12.97
2018-12-15T09:50:29.133Z,14.40
2018-12-15T09:52:57.749Z,14.23
2018-12-15T09:55:26.339Z,11.67
2018-12-15T09:57:55.013Z,13.00
2018-12-15T10:00:23.636Z,13.83
2018-12-15T10:02:52.253Z,13.33
2018-12-15T10:05:20.878Z,14.33
2018-12-15T10:07:49.505Z,13.67
2018-12-15T10:10:18.094Z,14.67
2018-12-15T10:12:46.705Z,13.80
2018-12-15T10:15:15.321Z,13.93
2018-12-15T10:17:43.937Z,13.80
2018-12-15T10:20:12.564Z,13.40
2018-12-15T10:22:41.220Z,13.27
2018-12-15T10:25:10.023Z,16.87
2018-12-15T10:27:38.645Z,16.13
2018-12-15T10:30:12.707Z,13.97
2018-12-15T10:32:46.653Z,15.03
2018-12-15T10:35:15.750Z,15.10
2018-12-15T10:37:44.414Z,14.93
2018-12-15T10:40:13.076Z,15.87
2018-12-15T10:42:41.725Z,15.53
2018-12-15T10:45:10.332Z,15.40
2018-12-15T10:47:38.991Z,15.70
2018-12-15T10:50:08.905Z,15.07
2018-12-15T10:52:37.565Z,14.30
2018-12-15T10:55:07.044Z,15.20
2018-12-15T10:57:35.671Z,15.33
2018-12-15T11:00:05.057Z,14.67
2018-12-15T11:02:33.676Z,14.43
2018-12-15T11:05:02.347Z,15.00
2018-12-15T11:07:30.973Z,15.10
2018-12-15T11:09:59.557Z,16.17
2018-12-15T11:12:28.191Z,14.37
2018-12-15T11:14:56.842Z,13.90
2018-12-15T11:17:25.518Z,14.03
2018-12-15T11:19:54.155Z,14.27
2018-12-15T11:22:22.817Z,13.27
2018-12-15T11:24:52.063Z,14.47
2018-12-15T11:27:21.050Z,15.00
2018-12-15T11:29:49.701Z,13.10
2018-12-15T11:32:18.441Z,13.47
2018-12-15T11:34:47.055Z,12.30
2018-12-15T11:37:16.432Z,13.67
2018-12-15T11:39:45.688Z,13.90
2018-12-15T11:42:14.321Z,13.13
2018-12-15T11:44:43.053Z,15.23
2018-12-15T11:47:12.296Z,14.90
2018-12-15T11:49:43.703Z,14.60
2018-12-15T11:52:13.152Z,15.27
2018-12-15T11:54:41.904Z,13.43
2018-12-15T11:57:30.002Z,12.90
2018-12-15T12:00:00.281Z,12.17
2018-12-15T12:02:32.017Z,14.57
2018-12-15T12:05:00.394Z,13.93
2018-12-15T12:07:29.101Z,13.37
2018-12-15T12:09:58.075Z,13.70
2018-12-15T12:12:26.817Z,13.33
2018-12-15T12:14:55.453Z,14.27
2018-12-15T12:17:24.153Z,13.60
2018-12-15T12:19:52.809Z,13.83
2018-12-15T12:22:21.456Z,13.70
2018-12-15T12:24:50.237Z,13.87
2018-12-15T12:27:19.428Z,14.27
2018-12-15T12:29:48.420Z,14.10
2018-12-15T12:32:17.513Z,14.93
2018-12-15T12:34:46.238Z,14.13
2018-12-15T12:37:14.920Z,14.50
2018-12-15T12:39:43.527Z,14.73
2018-12-15T12:42:12.160Z,15.20
2018-12-15T12:44:40.864Z,12.97
2018-12-15T12:47:09.724Z,12.27
2018-12-15T12:49:38.393Z,13.07
2018-12-15T12:52:07.082Z,12.83
2018-12-15T12:54:35.737Z,13.13
2018-12-15T12:57:04.425Z,12.27
2018-12-15T12:59:33.126Z,13.07
2018-12-15T13:02:01.899Z,12.43
2018-12-15T13:04:30.828Z,13.40
2018-12-15T13:06:59.458Z,13.00
2018-12-15T13:09:28.062Z,13.07
2018-12-15T13:11:56.953Z,12.53
2018-12-15T13:14:25.626Z,14.43
2018-12-15T13:16:54.277Z,13.27
2018-12-15T13:19:22.890Z,12.60
2018-12-15T13:21:51.497Z,11.90
2018-12-15T13:24:20.101Z,12.20
2018-12-15T13:26:48.698Z,11.53
2018-12-15T13:29:17.368Z,11.57
2018-12-15T13:31:45.973Z,11.00
2018-12-15T13:34:14.655Z,10.70
2018-12-15T13:36:43.316Z,11.13
2018-12-15T13:39:11.943Z,13.03
2018-12-15T13:41:40.681Z,12.53
2018-12-15T13:44:09.341Z,10.93
2018-12-15T13:46:38.036Z,15.97
2018-12-15T13:49:07.092Z,12.93
2018-12-15T13:51:36.038Z,13.13
2018-12-15T13:54:04.662Z,13.57
2018-12-15T13:56:33.349Z,13.60
2018-12-15T13:59:01.999Z,13.40
2018-12-15T14:01:30.645Z,13.40
2018-12-15T14:03:59.261Z,12.57
2018-12-15T14:06:27.842Z,13.10
2018-12-15T14:08:56.483Z,13.07
2018-12-15T14:11:25.093Z,12.93
2018-12-15T14:13:53.725Z,13.83
2018-12-15T14:16:22.404Z,11.57
2018-12-15T14:18:51.074Z,12.37
2018-12-15T14:21:19.991Z,12.37
2018-12-15T14:23:48.630Z,11.40
2018-12-15T14:26:17.260Z,11.93
2018-12-15T14:28:46.213Z,11.63
2018-12-15T14:31:16.097Z,11.23
2018-12-15T14:33:44.712Z,11.93
2018-12-15T14:36:13.337Z,10.63
2018-12-15T14:38:41.977Z,11.00
2018-12-15T14:41:10.602Z,11.30
2018-12-15T14:43:39.206Z,12.13
2018-12-15T14:46:07.847Z,11.17
2018-12-15T14:48:36.572Z,11.30
2018-12-15T14:51:05.240Z,10.70
2018-12-15T14:53:33.852Z,10.93
2018-12-15T14:56:02.489Z,10.93
2018-12-15T14:58:31.164Z,10.33
2018-12-15T15:00:59.918Z,10.20
2018-12-15T15:03:28.683Z,10.70
2018-12-15T15:05:57.290Z,11.53
2018-12-15T15:08:25.911Z,11.23
2018-12-15T15:10:54.579Z,10.67
2018-12-15T15:13:23.353Z,9.87
2018-12-15T15:15:51.965Z,10.83
2018-12-15T15:18:20.594Z,10.47
2018-12-15T15:20:49.223Z,10.57
2018-12-15T15:23:17.827Z,10.33
2018-12-15T15:25:46.950Z,10.27
2018-12-15T15:28:16.473Z,9.83
2018-12-15T15:30:45.557Z,9.87
2018-12-15T15:33:14.324Z,10.63
2018-12-15T15:35:42.963Z,9.00
2018-12-15T15:38:11.616Z,10.33
2018-12-15T15:40:40.263Z,10.50
2018-12-15T15:43:08.921Z,9.87
2018-12-15T15:45:37.601Z,9.37
2018-12-15T15:48:06.262Z,9.00
2018-12-15T15:50:36.697Z,10.17
2018-12-15T15:53:05.509Z,10.10
2018-12-15T15:55:34.173Z,9.23
2018-12-15T15:58:02.823Z,9.77
2018-12-15T16:00:32.169Z,8.83
2018-12-15T16:03:00.779Z,9.43
2018-12-15T16:05:29.388Z,9.63
2018-12-15T16:07:58.009Z,9.17
2018-12-15T16:10:26.623Z,9.20
2018-12-15T16:12:55.235Z,9.87
2018-12-15T16:15:23.817Z,9.77
2018-12-15T16:17:52.468Z,9.50
2018-12-15T16:20:21.124Z,9.37
2018-12-15T16:22:49.749Z,9.53
2018-12-15T16:25:18.377Z,9.30
2018-12-15T16:27:47.043Z,9.00
2018-12-15T16:30:15.657Z,8.63
2018-12-15T16:32:44.285Z,9.40
2018-12-15T16:35:12.898Z,9.03
2018-12-15T16:37:41.527Z,8.57
2018-12-15T16:40:10.155Z,9.77
2018-12-15T16:42:38.798Z,8.97
2018-12-15T16:45:09.881Z,9.53
2018-12-15T16:47:38.496Z,9.07
2018-12-15T16:50:10.608Z,8.37
2018-12-15T16:52:39.874Z,8.90
2018-12-15T16:55:08.603Z,8.97
2018-12-15T16:57:37.196Z,9.77
2018-12-15T17:00:08.652Z,9.93
2018-12-15T17:02:37.281Z,8.93
2018-12-15T17:05:06.160Z,9.90
2018-12-15T17:07:34.777Z,9.47
2018-12-15T17:10:03.722Z,9.03
2018-12-15T17:12:32.335Z,9.20
2018-12-15T17:15:00.959Z,9.43
2018-12-15T17:17:29.574Z,9.40
2018-12-15T17:19:58.251Z,8.70
2018-12-15T17:22:26.857Z,9.43
2018-12-15T17:24:56.521Z,8.97
2018-12-15T17:27:28.750Z,9.63
2018-12-15T17:29:57.415Z,9.50
2018-12-15T17:32:26.044Z,9.27
2018-12-15T17:34:54.669Z,9.23
2018-12-15T17:37:23.270Z,8.80
2018-12-15T17:39:51.877Z,9.23
2018-12-15T17:42:20.484Z,8.80
2018-12-15T17:44:49.077Z,8.87
2018-12-15T17:47:17.713Z,9.33
2018-12-15T17:49:46.302Z,8.83
2018-12-15T17:52:14.924Z,9.10
2018-12-15T17:54:43.593Z,9.70
2018-12-15T17:57:12.229Z,9.70
2018-12-15T17:59:40.884Z,9.37
2018-12-15T18:02:12.890Z,10.17
2018-12-15T18:04:41.504Z,10.15
2018-12-15T18:07:10.114Z,9.83
2018-12-15T18:09:38.734Z,9.80
2018-12-15T18:12:07.367Z,11.40
2018-12-15T18:14:35.973Z,12.93
2018-12-15T18:17:04.624Z,12.50
2018-12-15T18:19:33.797Z,13.20
2018-12-15T18:22:02.422Z,12.00
2018-12-15T18:24:31.029Z,11.93
2018-12-15T18:26:59.639Z,12.10
2018-12-15T18:29:37.664Z,11.00
2018-12-15T18:32:07.013Z,12.10
2018-12-15T18:34:35.660Z,11.93
2018-12-15T18:37:04.257Z,11.73
2018-12-15T18:39:32.876Z,11.60
2018-12-15T18:42:03.574Z,12.30
2018-12-15T18:44:32.188Z,11.50
2018-12-15T18:47:00.853Z,12.70
2018-12-15T18:49:30.459Z,11.73
2018-12-15T18:51:59.930Z,13.83
2018-12-15T18:54:29.282Z,12.70
2018-12-15T18:56:58.794Z,12.43
2018-12-15T18:59:27.723Z,13.63
2018-12-15T19:01:56.313Z,14.43
2018-12-15T19:04:26.249Z,13.60
2018-12-15T19:06:54.871Z,12.17
2018-12-15T19:09:23.481Z,13.40
2018-12-15T19:11:53.120Z,11.47
2018-12-15T19:14:21.777Z,12.20
2018-12-15T19:16:50.430Z,12.67
2018-12-15T19:19:19.065Z,12.40
2018-12-15T19:21:47.683Z,12.83
2018-12-15T19:24:16.328Z,12.53
2018-12-15T19:26:44.957Z,11.67
2018-12-15T19:29:14.777Z,13.13
2018-12-15T19:31:44.311Z,12.20
2018-12-15T19:34:17.526Z,13.93
2018-12-15T19:36:44.855Z,14.30
2018-12-15T19:39:13.716Z,13.53
2018-12-15T19:41:42.381Z,14.90
2018-12-15T19:44:11.005Z,14.47
2018-12-15T19:46:39.642Z,14.00
2018-12-15T19:49:08.276Z,14.60
2018-12-15T19:51:36.986Z,16.00
2018-12-15T19:54:06.593Z,15.37
2018-12-15T19:56:35.237Z,15.77
2018-12-15T19:59:03.839Z,15.17
2018-12-15T20:01:32.499Z,15.97
2018-12-15T20:04:01.156Z,16.87
2018-12-15T20:06:29.829Z,16.80
2018-12-15T20:08:58.449Z,17.77
2018-12-15T20:11:27.906Z,19.27
2018-12-15T20:13:56.938Z,18.87
2018-12-15T20:16:26.811Z,18.50
2018-12-15T20:18:55.485Z,18.47
2018-12-15T20:21:26.014Z,17.30
2018-12-15T20:23:55.724Z,18.00
2018-12-15T20:26:24.376Z,18.40
2018-12-15T20:28:53.030Z,18.10
2018-12-15T20:31:21.741Z,18.17
2018-12-15T20:33:50.420Z,17.93
2018-12-15T20:36:19.817Z,17.23
2018-12-15T20:38:49.132Z,16.70
2018-12-15T20:41:19.275Z,16.80
2018-12-15T20:43:48.254Z,16.67
2018-12-15T20:46:16.897Z,16.13
2018-12-15T20:48:46.877Z,16.40
2018-12-15T20:51:15.721Z,16.07
2018-12-15T20:53:44.617Z,16.00
2018-12-15T20:56:13.930Z,16.43
2018-12-15T20:58:42.562Z,15.37
2018-12-15T21:01:11.195Z,16.70
2018-12-15T21:03:40.010Z,15.53
2018-12-15T21:06:08.655Z,16.20
2018-12-15T21:08:38.063Z,15.47
2018-12-15T21:11:06.785Z,15.70
2018-12-15T21:13:35.912Z,16.23
2018-12-15T21:16:05.329Z,15.87
2018-12-15T21:18:34.049Z,16.67
2018-12-15T21:21:02.681Z,15.17
2018-12-15T21:23:31.341Z,15.20
2018-12-15T21:26:00.401Z,15.07
2018-12-15T21:28:29.072Z,14.83
2018-12-15T21:30:59.155Z,15.70
2018-12-15T21:33:29.165Z,15.20
2018-12-15T21:35:58.406Z,15.30
2018-12-15T21:38:27.042Z,15.17
2018-12-15T21:40:57.412Z,14.83
2018-12-15T21:43:26.985Z,15.10
2018-12-15T21:45:56.072Z,15.43
2018-12-15T21:48:24.770Z,14.33
2018-12-15T21:50:54.594Z,13.60
2018-12-15T21:53:25.417Z,14.27
2018-12-15T21:55:54.102Z,14.60
2018-12-15T21:58:23.682Z,13.57
2018-12-15T22:00:53.216Z,13.57
2018-12-15T22:03:21.934Z,12.67
2018-12-15T22:05:50.596Z,12.03
2018-12-15T22:08:19.741Z,10.73
2018-12-15T22:10:49.250Z,7.20
2018-12-15T22:13:18.701Z,10.00
2018-12-15T22:15:47.460Z,10.80
2018-12-15T22:18:16.733Z,10.83
2018-12-15T22:20:46.006Z,10.33
2018-12-15T22:23:14.771Z,10.87
2018-12-15T22:25:44.130Z,10.87
2018-12-15T22:28:13.131Z,11.70
2018-12-15T22:30:41.818Z,11.90
2018-12-15T22:33:10.480Z,11.50
2018-12-15T22:35:39.140Z,11.60
2018-12-15T22:38:07.750Z,10.83
2018-12-15T22:40:36.397Z,11.90
2018-12-15T22:43:05.034Z,11.30
2018-12-15T22:45:33.969Z,10.70
2018-12-15T22:48:02.577Z,10.97
2018-12-15T22:50:31.290Z,11.47
2018-12-15T22:52:59.904Z,11.50
2018-12-15T22:55:28.537Z,11.90
2018-12-15T22:57:57.117Z,11.33
2018-12-15T23:00:25.709Z,11.10
2018-12-15T23:02:54.348Z,12.43
2018-12-15T23:05:22.984Z,10.90
2018-12-15T23:07:51.632Z,11.07
2018-12-15T23:10:20.253Z,10.70
2018-12-15T23:12:48.861Z,11.37
2018-12-15T23:15:17.516Z,11.43
2018-12-15T23:17:46.123Z,10.90
2018-12-15T23:20:14.835Z,10.57
2018-12-15T23:22:43.432Z,10.70
2018-12-15T23:25:12.070Z,10.63
2018-12-15T23:27:40.700Z,11.17
2018-12-15T23:30:09.356Z,10.30
2018-12-15T23:32:37.948Z,10.87
2018-12-15T23:35:06.592Z,10.50
2018-12-15T23:37:35.267Z,9.97
2018-12-15T23:40:04.001Z,10.57
2018-12-15T23:42:32.813Z,10.20
2018-12-15T23:45:01.418Z,10.47
2018-12-15T23:47:30.012Z,8.87
2018-12-15T23:49:58.651Z,9.80
2018-12-15T23:52:27.331Z,10.13
2018-12-15T23:55:03.994Z,9.97
2018-12-15T23:57:32.742Z,9.90
